Time;durP1;ratioP1;P1;durP2;ratioP2;P2;SDS_P1;SDS_P2;PMS_P1;PMS_P2;Temp;Humidity;BMP_temperature;BMP_pressure;BME280_temperature;BME280_humidity;BME280_pressure;Samples;Min_cycle;Max_cycle;Signal;HPM_P1;HPM_P2
2023/01/16 00:01:57;;;;;;;0.80;0.80;;;3.80;99.90;;;;;;5075239;28;20290;-89
2023/01/16 00:04:35;;;;;;;1.50;1.17;;;3.90;99.90;;;;;;5075436;28;20198;-89
2023/01/16 00:07:01;;;;;;;1.03;0.97;;;;;;;;;;5088125;28;20178;-90
2023/01/16 00:09:29;;;;;;;5.43;1.53;;;;;;;;;;5083230;28;20183;-90
2023/01/16 00:12:02;;;;;;;1.10;1.10;;;3.80;99.90;;;;;;5055469;28;20234;-89
2023/01/16 00:14:31;;;;;;;1.10;1.07;;;3.80;99.90;;;;;;5047931;28;20184;-88
2023/01/16 00:16:58;;;;;;;1.20;1.10;;;;;;;;;;5075389;28;20186;-89
2023/01/16 00:19:27;;;;;;;1.10;1.10;;;;;;;;;;5077025;28;20194;-89
2023/01/16 00:21:53;;;;;;;5.83;1.23;;;;;;;;;;5075072;28;20280;-89
2023/01/16 00:24:19;;;;;;;0.80;0.80;;;;;;;;;;5059580;28;20191;-89
2023/01/16 00:26:45;;;;;;;1.20;1.10;;;;;;;;;;5039117;28;20183;-89
2023/01/16 00:29:13;;;;;;;1.57;1.03;;;;;;;;;;5055336;28;20184;-89
2023/01/16 00:31:39;;;;;;;2.60;1.10;;;;;;;;;;5055384;28;20558;-89
2023/01/16 00:34:05;;;;;;;3.93;2.27;;;;;;;;;;5054909;28;20191;-90
2023/01/16 00:36:39;;;;;;;13.67;5.23;;;;;;;;;;5055664;28;20208;-89
2023/01/16 00:39:05;;;;;;;8.53;5.00;;;;;;;;;;5055126;28;20180;-89
2023/01/16 00:41:33;;;;;;;7.20;4.80;;;3.60;99.90;;;;;;5055383;28;20543;-90
2023/01/16 00:44:02;;;;;;;2.47;1.50;;;;;;;;;;5060488;28;20652;-89
2023/01/16 00:46:29;;;;;;;1.70;1.43;;;;;;;;;;5076463;28;20178;-90
2023/01/16 00:48:56;;;;;;;1.93;1.27;;;3.60;99.90;;;;;;5074919;28;20266;-90
2023/01/16 00:51:22;;;;;;;1.57;1.47;;;;;;;;;;5076093;28;20212;-89
2023/01/16 00:53:48;;;;;;;1.93;1.80;;;;;;;;;;5074432;28;20245;-89
2023/01/16 00:56:14;;;;;;;1.27;1.27;;;;;;;;;;5074737;28;20212;-88
2023/01/16 00:58:48;;;;;;;1.57;1.43;;;;;;;;;;5074640;28;20328;-89
2023/01/16 01:01:14;;;;;;;1.90;1.73;;;;;;;;;;5074492;28;20206;-89
2023/01/16 01:03:40;;;;;;;1.97;1.77;;;;;;;;;;5076051;28;20190;-88
2023/01/16 01:06:08;;;;;;;3.67;1.83;;;3.50;99.90;;;;;;5074469;28;20182;-88
2023/01/16 01:08:36;;;;;;;1.70;1.60;;;3.50;99.90;;;;;;5074507;28;20186;-89
2023/01/16 01:11:20;;;;;;;1.80;1.40;;;3.50;99.90;;;;;;5074171;28;20617;-88
2023/01/16 01:13:48;;;;;;;1.87;1.63;;;;;;;;;;5074316;28;20186;-89
2023/01/16 01:16:15;;;;;;;1.17;1.00;;;;;;;;;;5075209;28;20662;-89
2023/01/16 01:18:43;;;;;;;2.53;1.87;;;;;;;;;;5074209;28;20189;-88
2023/01/16 01:21:10;;;;;;;1.43;1.33;;;;;;;;;;5073543;28;20242;-89
2023/01/16 01:23:36;;;;;;;2.97;1.57;;;;;;;;;;5074017;28;20273;-87
2023/01/16 01:26:11;;;;;;;1.53;1.43;;;3.40;99.90;;;;;;5074026;28;20607;-88
2023/01/16 01:28:37;;;;;;;3.13;2.13;;;;;;;;;;5074207;28;20668;-90
2023/01/16 01:31:05;;;;;;;1.53;1.20;;;3.40;99.90;;;;;;5074406;28;20199;-89
2023/01/16 01:33:41;;;;;;;;;;;;;;;;;;;;;
2023/01/16 01:36:08;;;;;;;1.30;1.30;;;1.40;99.90;;;;;;5076035;28;20176;-90
2023/01/16 01:38:39;;;;;;;5.40;2.10;;;3.40;99.90;;;;;;5073835;28;20185;-88
2023/01/16 01:41:06;;;;;;;1.47;1.37;;;3.40;99.90;;;;;;5073518;28;20583;-89
2023/01/16 01:43:59;;;;;;;1.53;1.43;;;3.40;99.90;;;;;;5073070;28;20190;-89
2023/01/16 01:46:34;;;;;;;4.87;1.93;;;3.40;99.90;;;;;;5063518;28;20303;-89
2023/01/16 01:49:23;;;;;;;0.90;0.90;;;3.40;99.90;;;;;;5073682;28;20179;-89
2023/01/16 01:51:53;;;;;;;1.73;1.50;;;3.40;99.90;;;;;;5073901;28;20716;-88
2023/01/16 01:54:24;;;;;;;1.13;1.13;;;3.40;99.90;;;;;;5073084;28;20220;-89
2023/01/16 01:57:08;;;;;;;2.90;2.00;;;3.40;99.90;;;;;;5073903;28;20259;-89
2023/01/16 01:59:46;;;;;;;4.50;1.10;;;3.40;99.90;;;;;;5073754;28;20171;-88
2023/01/16 02:02:20;;;;;;;0.97;0.97;;;3.40;99.90;;;;;;5073168;28;20201;-88
2023/01/16 02:04:51;;;;;;;0.70;0.70;;;3.40;99.90;;;;;;5074146;28;20197;-89
2023/01/16 02:07:19;;;;;;;1.07;0.90;;;3.40;99.90;;;;;;5074643;28;20173;-89
2023/01/16 02:09:45;;;;;;;0.97;0.97;;;;;;;;;;5073596;28;20273;-90
2023/01/16 02:12:13;;;;;;;0.80;0.80;;;3.40;99.90;;;;;;5073160;28;20183;-90
2023/01/16 02:14:42;;;;;;;1.00;1.00;;;3.50;99.90;;;;;;5074617;28;20197;-90
2023/01/16 02:20:25;;;;;;;1.20;1.07;;;3.40;99.90;;;;;;5074547;28;20174;-90
2023/01/16 02:23:09;;;;;;;1.33;1.23;;;3.40;99.90;;;;;;5073234;28;20243;-91
2023/01/16 02:25:53;;;;;;;0.97;0.97;;;3.40;99.90;;;;;;5073534;28;20182;-90
2023/01/16 02:28:31;;;;;;;1.17;1.17;;;3.40;99.90;;;;;;5074251;28;20640;-90
2023/01/16 02:31:30;;;;;;;1.27;1.17;;;3.40;99.90;;;;;;5072930;28;20677;-90
2023/01/16 02:34:24;;;;;;;1.03;1.03;;;3.60;99.90;;;;;;5072925;28;20178;-90
2023/01/16 02:37:02;;;;;;;1.77;1.07;;;3.30;99.90;;;;;;5073048;28;20186;-90
2023/01/16 02:39:51;;;;;;;0.83;0.80;;;3.30;99.90;;;;;;5072526;28;20186;-89
2023/01/16 02:42:38;;;;;;;0.93;0.93;;;3.40;99.90;;;;;;5072491;28;20190;-89
2023/01/16 02:45:36;;;;;;;1.23;1.17;;;3.30;99.90;;;;;;5065310;28;20658;-90
2023/01/16 02:48:31;;;;;;;1.03;1.03;;;3.30;99.90;;;;;;5052879;28;20237;-90
2023/01/16 02:51:20;;;;;;;1.00;1.00;;;3.40;99.90;;;;;;5052818;28;20219;-90
2023/01/16 02:54:11;;;;;;;4.23;1.23;;;3.40;99.90;;;;;;5052835;28;20186;-90
2023/01/16 02:56:48;;;;;;;1.40;1.30;;;3.30;99.90;;;;;;5052625;28;20179;-90
2023/01/16 02:59:16;;;;;;;1.30;1.20;;;3.30;99.90;;;;;;5052508;28;20580;-90
2023/01/16 03:01:49;;;;;;;0.70;0.70;;;3.30;99.90;;;;;;5052255;28;20406;-90
2023/01/16 03:04:36;;;;;;;1.00;1.00;;;3.30;99.90;;;;;;5053273;28;20656;-90
2023/01/16 03:07:11;;;;;;;4.87;1.10;;;3.30;99.90;;;;;;5053415;28;20648;-88
2023/01/16 03:09:47;;;;;;;6.60;1.63;;;3.40;99.90;;;;;;5052052;28;20172;-88
2023/01/16 03:12:34;;;;;;;1.03;1.00;;;3.40;99.90;;;;;;5052317;28;20194;-89
2023/01/16 03:15:23;;;;;;;1.73;1.63;;;3.30;99.90;;;;;;5053410;28;20171;-89
2023/01/16 03:17:52;;;;;;;7.33;1.37;;;3.50;99.90;;;;;;5053265;28;20195;-89
2023/01/16 03:20:45;;;;;;;1.07;1.00;;;3.30;99.90;;;;;;5051646;28;20254;-89
2023/01/16 03:23:36;;;;;;;1.30;1.10;;;3.30;99.90;;;;;;5052356;28;20203;-89
2023/01/16 03:26:06;;;;;;;3.17;2.03;;;3.20;99.90;;;;;;5068488;28;20204;-89
2023/01/16 03:28:32;;;;;;;1.50;1.40;;;;;;;;;;5072155;28;20346;-89
2023/01/16 03:31:09;;;;;;;1.33;1.23;;;3.10;99.90;;;;;;5073152;28;20207;-90
2023/01/16 03:34:12;;;;;;;2.13;1.90;;;2.80;99.90;;;;;;5072130;28;20232;-89
2023/01/16 03:36:44;;;;;;;2.63;2.07;;;2.70;99.90;;;;;;5071929;28;20190;-89
2023/01/16 03:39:14;;;;;;;1.83;1.73;;;2.90;99.90;;;;;;5071757;28;20183;-89
2023/01/16 03:41:47;;;;;;;2.03;1.63;;;2.90;99.90;;;;;;5053100;28;20575;-89
2023/01/16 03:44:28;;;;;;;2.03;1.40;;;2.90;99.90;;;;;;5068592;28;20666;-90
2023/01/16 03:47:00;;;;;;;2.50;2.00;;;2.90;99.90;;;;;;5078826;28;20220;-91
2023/01/16 03:50:04;;;;;;;2.47;2.30;;;2.90;99.90;;;;;;5072081;28;20260;-90
2023/01/16 03:52:40;;;;;;;2.30;1.27;;;3.00;99.90;;;;;;5071998;28;20211;-90
2023/01/16 03:55:39;;;;;;;1.73;1.33;;;2.90;99.90;;;;;;5072283;28;20218;-90
2023/01/16 03:58:09;;;;;;;2.10;1.33;;;2.90;99.90;;;;;;5071991;28;20205;-89
2023/01/16 04:00:55;;;;;;;5.77;2.57;;;2.90;99.90;;;;;;5071767;28;20205;-89
2023/01/16 04:03:43;;;;;;;1.87;1.77;;;2.90;99.90;;;;;;5071869;28;20331;-89
2023/01/16 04:06:17;;;;;;;5.97;3.33;;;2.90;99.90;;;;;;5071870;28;20182;-90
2023/01/16 04:08:48;;;;;;;1.37;1.33;;;3.00;99.90;;;;;;5071683;28;20648;-89
2023/01/16 04:11:17;;;;;;;1.20;1.20;;;3.00;99.90;;;;;;5072245;28;20183;-89
2023/01/16 04:13:48;;;;;;;1.70;1.60;;;3.00;99.90;;;;;;5071855;28;20668;-89
2023/01/16 04:16:23;;;;;;;1.00;1.00;;;2.90;99.90;;;;;;5071509;28;20182;-90
2023/01/16 04:18:52;;;;;;;3.00;1.53;;;3.00;99.90;;;;;;5072892;28;20177;-90
2023/01/16 04:21:30;;;;;;;3.10;1.10;;;3.00;99.90;;;;;;5071414;28;20242;-90
2023/01/16 04:24:01;;;;;;;3.40;1.07;;;3.00;99.90;;;;;;5072989;28;20177;-90
2023/01/16 04:26:32;;;;;;;6.83;2.23;;;3.00;99.90;;;;;;5072727;28;20192;-91
2023/01/16 04:28:58;;;;;;;12.53;2.07;;;;;;;;;;5041726;28;20189;-90
2023/01/16 04:31:27;;;;;;;1.70;1.60;;;3.00;99.90;;;;;;5076544;28;20634;-89
2023/01/16 04:34:08;;;;;;;;;;;;;;;;;;;;;
2023/01/16 04:36:35;;;;;;;2.87;1.50;;;;;;;;;;5069557;28;20198;-89
2023/01/16 04:39:01;;;;;;;1.43;1.33;;;;;;;;;;5055233;28;20213;-89
2023/01/16 04:41:36;;;;;;;2.27;1.83;;;;;;;;;;5054843;28;20210;-89
2023/01/16 04:44:07;;;;;;;2.30;1.90;;;3.00;99.90;;;;;;5060051;28;20298;-91
2023/01/16 04:46:41;;;;;;;2.07;1.93;;;;;;;;;;5075704;28;20207;-90
2023/01/16 04:49:09;;;;;;;3.33;2.50;;;;;;;;;;5076446;28;20623;-90
2023/01/16 04:51:39;;;;;;;2.13;2.03;;;2.90;99.90;;;;;;5077085;28;20192;-91
2023/01/16 04:54:06;;;;;;;2.77;2.57;;;2.90;99.90;;;;;;5062729;28;20250;-91
2023/01/16 04:56:35;;;;;;;5.57;3.20;;;;;;;;;;5040407;28;20223;-92
2023/01/16 04:59:04;;;;;;;5.90;2.43;;;;;;;;;;5055250;28;20180;-90
2023/01/16 05:01:34;;;;;;;1.87;1.73;;;3.00;99.90;;;;;;5057105;28;20214;-89
2023/01/16 05:04:01;;;;;;;2.33;2.13;;;2.90;99.90;;;;;;5069588;28;20188;-91
2023/01/16 05:06:30;;;;;;;3.37;2.53;;;;;;;;;;5055024;28;20184;-90
2023/01/16 05:08:56;;;;;;;2.77;2.43;;;;;;;;;;5054443;28;20188;-88
2023/01/16 05:11:22;;;;;;;2.03;1.93;;;;;;;;;;5068736;28;20187;-90
2023/01/16 05:13:51;;;;;;;3.10;2.80;;;2.90;99.90;;;;;;5067003;28;20602;-93
2023/01/16 05:16:17;;;;;;;8.00;2.23;;;;;;;;;;5063972;28;20178;-92
2023/01/16 05:18:43;;;;;;;4.10;3.20;;;;;;;;;;5062288;28;20195;-92
2023/01/16 05:21:19;;;;;;;2.63;2.43;;;2.90;99.90;;;;;;5048678;28;20703;-93
2023/01/16 05:23:46;;;;;;;2.73;2.53;;;;;;;;;;5057173;28;20199;-92
2023/01/16 05:26:12;;;;;;;4.00;2.37;;;;;;;;;;5061315;28;20188;-92
2023/01/16 05:28:38;;;;;;;3.23;2.33;;;;;;;;;;5067343;28;20180;-92
2023/01/16 05:31:11;;;;;;;2.30;2.17;;;2.80;99.90;;;;;;5074730;28;20183;-94
2023/01/16 05:33:52;;;;;;;3.63;2.53;;;2.90;99.90;;;;;;5052369;28;20218;-93
2023/01/16 05:36:18;;;;;;;9.23;2.97;;;;;;;;;;5050347;28;20188;-93
2023/01/16 05:38:54;;;;;;;;;;;;;;;;;;;;;
2023/01/16 05:41:21;;;;;;;2.40;2.27;;;;;;;;;;5064154;28;20205;-92
2023/01/16 05:43:47;;;;;;;4.30;3.47;;;;;;;;;;5070156;28;20191;-93
2023/01/16 05:46:13;;;;;;;3.47;3.17;;;;;;;;;;5065321;28;20645;-91
2023/01/16 05:48:47;;;;;;;3.13;2.83;;;2.90;99.90;;;;;;5042787;28;20200;-92
2023/01/16 05:51:15;;;;;;;8.47;2.87;;;;;;;;;;5068939;28;20194;-89
2023/01/16 05:53:52;;;;;;;4.30;3.40;;;2.90;99.90;;;;;;5086627;28;20184;-92
2023/01/16 05:56:21;;;;;;;7.17;4.60;;;2.90;99.90;;;;;;5075393;28;20628;-92
2023/01/16 05:58:48;;;;;;;4.63;2.73;;;;;;;;;;5072333;28;20183;-91
2023/01/16 06:01:16;;;;;;;4.60;4.17;;;;;;;;;;5066859;28;20203;-92
2023/01/16 06:03:42;;;;;;;9.13;3.93;;;;;;;;;;5065151;28;20241;-90
2023/01/16 06:06:10;;;;;;;9.13;4.60;;;3.00;99.90;;;;;;5060483;28;20180;-90
2023/01/16 06:08:49;;;;;;;;;;;;;;;;;;;;;
2023/01/16 06:11:17;;;;;;;4.00;3.20;;;3.00;99.90;;;;;;5073305;28;20666;-93
2023/01/16 06:13:49;;;;;;;2.70;2.50;;;3.00;99.90;;;;;;5065162;28;20183;-92
2023/01/16 06:16:26;;;;;;;6.10;4.03;;;3.00;99.90;;;;;;5072997;28;20183;-92
2023/01/16 06:18:55;;;;;;;6.50;2.80;;;;;;;;;;5053471;28;20190;-92
2023/01/16 06:21:23;;;;;;;2.40;2.20;;;;;;;;;;5068568;28;20274;-89
2023/01/16 06:23:49;;;;;;;4.67;3.43;;;;;;;;;;5070192;28;20294;-90
2023/01/16 06:26:19;;;;;;;6.67;2.30;;;;;;;;;;5070827;28;20189;-90
2023/01/16 06:28:47;;;;;;;6.63;3.83;;;;;;;;;;5072127;28;20235;-91
2023/01/16 06:31:13;;;;;;;7.93;4.53;;;;;;;;;;5071609;28;20201;-89
2023/01/16 06:33:42;;;;;;;6.80;3.27;;;2.80;99.90;;;;;;5072186;28;20181;-90
2023/01/16 06:36:13;;;;;;;3.83;3.53;;;2.90;99.90;;;;;;5064469;28;20533;-90
2023/01/16 06:38:42;;;;;;;3.23;2.77;;;;;;;;;;5070998;28;20196;-90
2023/01/16 06:41:11;;;;;;;5.63;3.10;;;;;;;;;;5073258;28;20267;-90
2023/01/16 06:43:41;;;;;;;6.80;2.93;;;2.90;99.90;;;;;;5083936;28;20183;-89
2023/01/16 06:46:07;;;;;;;5.47;3.33;;;;;;;;;;5066655;28;20190;-90
2023/01/16 06:48:34;;;;;;;5.13;3.90;;;;;;;;;;5086298;28;20263;-91
2023/01/16 06:51:09;;;;;;;6.93;2.87;;;2.90;99.90;;;;;;5077229;28;20193;-90
2023/01/16 06:53:38;;;;;;;3.07;2.37;;;;;;;;;;5073878;28;20206;-89
2023/01/16 06:56:06;;;;;;;4.20;2.03;;;;;;;;;;5077784;28;20208;-91
2023/01/16 06:58:35;;;;;;;13.70;6.70;;;;;;;;;;5077615;28;20193;-90
2023/01/16 07:01:04;;;;;;;11.53;6.80;;;;;;;;;;5068243;28;20211;-89
2023/01/16 07:03:30;;;;;;;16.97;4.17;;;;;;;;;;5073828;28;20213;-91
2023/01/16 07:05:59;;;;;;;11.73;5.77;;;;;;;;;;5071051;28;20255;-91
2023/01/16 07:08:35;;;;;;;23.03;8.53;;;2.90;99.90;;;;;;5073564;28;20215;-89
2023/01/16 07:11:06;;;;;;;13.43;7.37;;;2.90;99.90;;;;;;5082806;28;20225;-90
2023/01/16 07:13:33;;;;;;;9.13;3.93;;;;;;;;;;5061268;28;20190;-91
2023/01/16 07:24:21;;;;;;;17.13;5.27;;;2.90;99.90;;;;;;5052055;28;20294;-92
2023/01/16 07:26:57;;;;;;;13.10;5.07;;;2.90;99.90;;;;;;5030251;28;20205;-89
2023/01/16 07:29:25;;;;;;;44.23;9.53;;;2.90;99.90;;;;;;5029587;28;20222;-91
2023/01/16 07:31:53;;;;;;;6.73;5.43;;;;;;;;;;5033592;28;20188;-91
2023/01/16 07:34:22;;;;;;;3.87;3.30;;;;;;;;;;5034583;28;20180;-92
2023/01/16 07:36:50;;;;;;;4.67;3.33;;;;;;;;;;5035307;28;20180;-95
2023/01/16 07:39:16;;;;;;;4.83;3.33;;;;;;;;;;5057306;28;20210;-93
2023/01/16 07:41:52;;;;;;;5.67;2.87;;;2.80;99.90;;;;;;5037277;28;20257;-93
2023/01/16 07:44:36;;;;;;;;;;;;;;;;;;;;;
2023/01/16 07:47:04;;;;;;;5.83;2.20;;;;;;;;;;5030213;28;20195;-90
2023/01/16 07:49:33;;;;;;;6.00;2.60;;;;;;;;;;5052492;28;20176;-90
2023/01/16 07:52:04;;;;;;;2.63;2.43;;;2.70;99.90;;;;;;5034463;28;20498;-90
2023/01/16 07:54:35;;;;;;;2.40;1.83;;;;;;;;;;5014637;28;20222;-93
2023/01/16 07:57:18;;;;;;;3.20;2.83;;;2.70;99.90;;;;;;5034912;28;20187;-90
2023/01/16 07:59:44;;;;;;;7.40;3.77;;;;;;;;;;5052833;28;20176;-91
2023/01/16 08:02:23;;;;;;;3.27;2.47;;;2.80;99.90;;;;;;5052559;28;20561;-89
2023/01/16 08:04:49;;;;;;;2.53;2.30;;;;;;;;;;5053536;28;20203;-92
2023/01/16 08:07:20;;;;;;;11.20;2.83;;;2.80;99.90;;;;;;5023155;28;20290;-93
2023/01/16 08:09:56;;;;;;;;;;;;;;;;;;;;;
2023/01/16 08:12:23;;;;;;;9.03;2.97;;;;;;;;;;5053243;28;20175;-90
2023/01/16 08:14:49;;;;;;;2.40;2.20;;;;;;;;;;5038263;28;20180;-90
2023/01/16 08:17:20;;;;;;;2.77;2.57;;;2.70;99.90;;;;;;5020832;28;20188;-90
2023/01/16 08:19:48;;;;;;;3.43;2.13;;;;;;;;;;5021837;28;20183;-90
2023/01/16 08:22:17;;;;;;;14.37;3.47;;;;;;;;;;5062757;28;20227;-90
2023/01/16 08:24:43;;;;;;;2.90;2.70;;;;;;;;;;5074528;28;20229;-90
2023/01/16 08:27:09;;;;;;;3.47;1.83;;;;;;;;;;5074478;28;20183;-90
2023/01/16 08:29:35;;;;;;;2.93;2.73;;;;;;;;;;5074333;28;20211;-91
2023/01/16 08:32:02;;;;;;;3.57;2.87;;;;;;;;;;5075055;28;20173;-91
2023/01/16 08:34:32;;;;;;;5.57;3.33;;;2.60;99.90;;;;;;5075218;28;20249;-90
2023/01/16 08:39:47;;;;;;;3.00;2.70;;;;;;;;;;5074468;28;20547;-91
2023/01/16 08:53:11;;;;;;;3.03;2.80;;;;;;;;;;5076029;28;20203;-91
2023/01/16 08:55:38;;;;;;;5.00;3.03;;;;;;;;;;5075532;28;20238;-92
2023/01/16 08:58:05;;;;;;;3.53;2.80;;;;;;;;;;5075387;28;20181;-90
2023/01/16 09:00:31;;;;;;;5.47;4.10;;;;;;;;;;5072202;28;20214;-90
2023/01/16 09:02:59;;;;;;;8.90;3.67;;;;;;;;;;5063323;28;20200;-89
2023/01/16 09:05:26;;;;;;;2.23;2.07;;;3.20;99.90;;;;;;5074216;28;20203;-91
2023/01/16 09:07:54;;;;;;;4.93;3.67;;;3.20;99.90;;;;;;5064766;28;20187;-91
2023/01/16 09:10:20;;;;;;;3.40;2.77;;;;;;;;;;5056136;28;20191;-91
2023/01/16 09:15:31;;;;;;;8.30;3.67;;;;;;;;;;5058409;28;20686;-91
2023/01/16 09:17:57;;;;;;;5.90;4.27;;;;;;;;;;5075436;28;20182;-91
2023/01/16 09:20:36;;;;;;;;;;;;;;;;;;;;;
2023/01/16 09:23:03;;;;;;;7.83;3.63;;;3.50;99.90;;;;;;5054414;28;20187;-93
2023/01/16 09:25:30;;;;;;;5.07;3.23;;;;;;;;;;5036094;28;20262;-91
2023/01/16 09:27:59;;;;;;;5.83;3.83;;;;;;;;;;5037770;28;20233;-90
2023/01/16 09:30:27;;;;;;;11.17;4.13;;;3.40;99.90;;;;;;5037545;28;20183;-91
2023/01/16 09:32:55;;;;;;;4.07;3.63;;;;;;;;;;5037007;28;20671;-90
2023/01/16 09:35:24;;;;;;;9.70;4.37;;;3.50;99.90;;;;;;5037619;28;20182;-90
2023/01/16 09:37:50;;;;;;;7.77;3.37;;;;;;;;;;5017413;28;20198;-90
2023/01/16 09:40:33;;;;;;;;;;;;;;;;;;;;;
2023/01/16 09:46:16;;;;;;;5.33;3.07;;;3.70;99.90;;;;;;5036289;28;20175;-90
2023/01/16 09:48:50;;;;;;;6.37;3.47;;;3.80;99.90;;;;;;5036480;28;20613;-92
2023/01/16 09:51:27;;;;;;;3.80;3.07;;;3.80;99.90;;;;;;5017278;28;20196;-89
2023/01/16 09:59:52;;;;;;;3.50;3.23;;;3.90;99.90;;;;;;5054491;28;20333;-90
2023/01/16 10:02:45;;;;;;;4.20;2.97;;;3.90;99.90;;;;;;5036863;28;20211;-90
2023/01/16 10:05:22;;;;;;;6.47;3.93;;;3.90;99.90;;;;;;5036915;28;20190;-89
2023/01/16 10:08:03;;;;;;;4.43;2.90;;;3.90;99.90;;;;;;5036267;28;20180;-89
2023/01/16 10:10:38;;;;;;;7.13;2.63;;;3.80;99.90;;;;;;5036760;28;20180;-91
2023/01/16 10:13:07;;;;;;;5.00;3.93;;;;;;;;;;5036660;28;20270;-91
2023/01/16 10:15:36;;;;;;;4.73;3.70;;;;;;;;;;5037016;28;20661;-93
2023/01/16 10:18:23;;;;;;;4.83;3.17;;;4.00;99.90;;;;;;5035753;28;20180;-90
2023/01/16 10:21:26;;;;;;;5.57;2.33;;;4.10;99.90;;;;;;5036165;28;20594;-90
2023/01/16 10:24:05;;;;;;;10.70;4.80;;;4.20;99.90;;;;;;5030368;28;20195;-90
2023/01/16 10:26:56;;;;;;;6.87;3.97;;;4.30;99.90;;;;;;5036285;28;20195;-92
2023/01/16 10:29:30;;;;;;;5.30;3.33;;;;;;;;;;5037203;28;20186;-91
2023/01/16 10:32:21;;;;;;;7.13;4.97;;;4.20;99.90;;;;;;5056111;28;20184;-91
2023/01/16 10:34:56;;;;;;;8.67;4.90;;;4.30;99.90;;;;;;5038222;28;20176;-91
2023/01/16 10:37:23;;;;;;;8.40;3.57;;;4.30;99.90;;;;;;5055131;28;20171;-91
2023/01/16 10:39:53;;;;;;;3.87;2.80;;;4.30;99.90;;;;;;5036340;28;20318;-89
2023/01/16 10:50:59;;;;;;;13.83;5.60;;;4.30;99.90;;;;;;5057324;28;20214;-89
2023/01/16 10:53:28;;;;;;;5.83;4.33;;;;;;;;;;5033381;28;20187;-90
2023/01/16 10:55:58;;;;;;;17.80;6.40;;;4.30;99.90;;;;;;5053000;28;20241;-92
2023/01/16 10:58:35;;;;;;;7.63;5.30;;;4.30;99.90;;;;;;5050461;28;20656;-90
2023/01/16 11:01:14;;;;;;;11.17;6.80;;;4.40;99.90;;;;;;5031267;28;20581;-92
2023/01/16 11:03:50;;;;;;;10.37;6.33;;;4.30;99.90;;;;;;5034197;28;20648;-92
2023/01/16 11:06:18;;;;;;;11.97;6.67;;;;;;;;;;5034813;28;20236;-90
2023/01/16 11:09:07;;;;;;;23.60;10.90;;;4.30;99.90;;;;;;5037115;28;20191;-90
2023/01/16 11:20:32;;;;;;;6.33;4.37;;;4.40;99.90;;;;;;5056615;28;20226;-93
2023/01/16 11:23:14;;;;;;;12.50;7.73;;;4.40;99.90;;;;;;5074157;28;20603;-90
2023/01/16 11:25:58;;;;;;;7.43;3.37;;;;;;;;;;5072799;28;20277;-92
2023/01/16 11:28:31;;;;;;;10.97;3.73;;;4.40;99.90;;;;;;5070539;28;20197;-94
2023/01/16 11:31:30;;;;;;;15.20;6.73;;;4.50;99.90;;;;;;5075941;28;20201;-92
2023/01/16 11:34:04;;;;;;;72.77;28.27;;;4.50;99.90;;;;;;5044756;28;20187;-92
2023/01/16 11:36:33;;;;;;;44.47;16.53;;;4.50;99.90;;;;;;5074745;28;20258;-89
2023/01/16 11:39:00;;;;;;;7.67;5.30;;;;;;;;;;5078340;28;20187;-89
2023/01/16 11:41:37;;;;;;;19.60;10.00;;;4.40;99.90;;;;;;5080149;28;20211;-92
2023/01/16 11:47:22;;;;;;;10.97;6.13;;;4.60;99.90;;;;;;5083657;28;20220;-90
2023/01/16 11:49:50;;;;;;;4.43;3.97;;;4.60;99.90;;;;;;5086510;28;20180;-88
2023/01/16 11:52:36;;;;;;;;;;;;;;;;;;;;;
2023/01/16 11:55:04;;;;;;;14.27;6.30;;;4.60;99.90;;;;;;5088018;28;20275;-91
2023/01/16 11:58:02;;;;;;;6.63;4.27;;;4.70;99.90;;;;;;5071776;28;20275;-91
2023/01/16 12:01:09;;;;;;;13.80;7.70;;;4.80;99.90;;;;;;5084692;28;20266;-89
2023/01/16 12:04:02;;;;;;;14.57;6.30;;;4.80;99.90;;;;;;5080847;28;20666;-89
2023/01/16 12:07:00;;;;;;;9.00;3.87;;;4.70;99.90;;;;;;5077783;28;20628;-90
2023/01/16 12:09:37;;;;;;;10.47;4.80;;;4.70;99.90;;;;;;5058215;28;20547;-89
2023/01/16 12:15:18;;;;;;;10.30;4.23;;;;;;;;;;5072647;28;20201;-88
2023/01/16 12:18:13;;;;;;;7.83;5.17;;;4.60;99.90;;;;;;5075966;28;20194;-90
2023/01/16 12:20:39;;;;;;;32.90;10.13;;;;;;;;;;5066398;28;20234;-90
2023/01/16 12:23:05;;;;;;;16.07;7.77;;;;;;;;;;5052915;28;20253;-90
2023/01/16 12:25:58;;;;;;;13.83;6.33;;;4.60;99.90;;;;;;5052027;28;20555;-89
2023/01/16 12:29:00;;;;;;;15.83;5.67;;;4.70;99.90;;;;;;5048496;28;20219;-91
2023/01/16 12:31:46;;;;;;;16.00;6.33;;;4.70;99.90;;;;;;5044665;28;20266;-89
2023/01/16 12:34:46;;;;;;;23.77;7.07;;;4.70;99.90;;;;;;5044665;28;20253;-89
2023/01/16 12:37:45;;;;;;;17.40;7.20;;;4.70;99.90;;;;;;5038842;28;20191;-89
2023/01/16 12:40:45;;;;;;;9.03;5.43;;;4.80;99.90;;;;;;5054307;28;20202;-88
2023/01/16 12:43:40;;;;;;;9.63;3.70;;;4.70;99.90;;;;;;5039223;28;20192;-89
2023/01/16 12:46:23;;;;;;;6.50;3.23;;;4.70;99.90;;;;;;5041999;28;20243;-88
2023/01/16 12:49:17;;;;;;;6.33;5.20;;;4.70;99.90;;;;;;5040460;28;20184;-90
2023/01/16 12:51:51;;;;;;;28.33;10.73;;;4.60;99.90;;;;;;5034532;28;20192;-91
2023/01/16 12:54:31;;;;;;;14.73;7.73;;;4.60;99.90;;;;;;5051225;28;20207;-90
2023/01/16 12:57:06;;;;;;;26.67;10.37;;;4.60;99.90;;;;;;5037636;28;20207;-91
2023/01/16 12:59:53;;;;;;;14.87;7.87;;;4.60;99.90;;;;;;5036153;28;20278;-91
2023/01/16 13:02:44;;;;;;;10.80;4.40;;;4.50;99.90;;;;;;5033595;28;20210;-90
2023/01/16 13:05:28;;;;;;;8.43;5.33;;;4.50;99.90;;;;;;5037620;28;20234;-90
2023/01/16 13:08:20;;;;;;;7.27;5.70;;;4.50;99.90;;;;;;5034672;28;20190;-90
2023/01/16 13:13:49;;;;;;;9.63;5.20;;;4.40;99.90;;;;;;5053607;28;20252;-90
2023/01/16 13:16:28;;;;;;;7.80;4.10;;;4.30;99.90;;;;;;5043080;28;20682;-90
2023/01/16 13:19:06;;;;;;;15.43;6.37;;;4.30;99.90;;;;;;5040073;28;20668;-90
2023/01/16 13:21:56;;;;;;;13.90;4.90;;;4.30;99.90;;;;;;5036837;28;20235;-90
2023/01/16 13:24:39;;;;;;;7.73;5.27;;;4.30;99.90;;;;;;5055111;28;20178;-89
2023/01/16 13:27:13;;;;;;;9.57;4.67;;;4.30;99.90;;;;;;5052459;28;20181;-91
2023/01/16 13:29:57;;;;;;;8.77;5.10;;;4.30;99.90;;;;;;5054684;28;20658;-87
2023/01/16 13:32:37;;;;;;;8.03;3.97;;;4.30;99.90;;;;;;5055472;28;20197;-88
2023/01/16 13:35:23;;;;;;;13.07;4.80;;;4.40;99.90;;;;;;5073457;28;20188;-88
2023/01/16 13:37:50;;;;;;;8.27;5.00;;;;;;;;;;5052992;28;20183;-87
2023/01/16 13:40:52;;;;;;;11.00;6.10;;;4.30;99.90;;;;;;5055268;28;20551;-89
2023/01/16 13:46:09;;;;;;;15.13;7.53;;;4.30;99.90;;;;;;5075449;28;20225;-90
2023/01/16 13:48:38;;;;;;;21.77;8.00;;;4.30;99.90;;;;;;5040676;28;20175;-90
2023/01/16 13:51:14;;;;;;;11.03;6.30;;;4.30;99.90;;;;;;5037687;28;20210;-88
2023/01/16 13:54:04;;;;;;;7.93;4.87;;;4.30;99.90;;;;;;5020818;28;20258;-91
2023/01/16 13:56:31;;;;;;;6.67;4.03;;;;;;;;;;5037220;28;20182;-89
2023/01/16 13:59:05;;;;;;;6.13;3.97;;;4.20;99.90;;;;;;5032334;28;20195;-89
2023/01/16 14:01:43;;;;;;;8.50;3.87;;;4.20;99.90;;;;;;5035491;28;20219;-88
2023/01/16 14:04:25;;;;;;;2.97;2.60;;;4.20;99.90;;;;;;5036863;28;20219;-85
2023/01/16 14:09:03;;;;;;;10.37;4.03;;;4.20;99.90;;;;;;5051140;28;20179;-90
2023/01/16 14:10:16;;;;;;;5.83;3.50;;;4.20;99.90;;;;;;5073653;28;20567;-89
2023/01/16 14:13:15;;;;;;;5.60;3.23;;;4.20;99.90;;;;;;5077023;28;20175;-91
2023/01/16 14:18:41;;;;;;;6.27;3.90;;;4.20;99.90;;;;;;5075595;28;20679;-88
2023/01/16 14:21:27;;;;;;;9.30;5.67;;;4.20;99.90;;;;;;5053513;28;20562;-89
2023/01/16 14:24:03;;;;;;;5.37;4.50;;;4.30;99.90;;;;;;5053536;28;20186;-89
2023/01/16 14:26:53;;;;;;;12.13;6.20;;;4.20;99.90;;;;;;5055365;28;20265;-89
2023/01/16 14:29:34;;;;;;;14.37;6.37;;;4.20;99.90;;;;;;5069768;28;20264;-87
2023/01/16 14:32:11;;;;;;;11.70;6.80;;;4.30;99.90;;;;;;5056834;28;20194;-88
2023/01/16 14:34:44;;;;;;;28.97;10.33;;;;;;;;;;5059596;28;20273;-89
2023/01/16 14:37:39;;;;;;;33.10;13.40;;;4.30;99.90;;;;;;5056211;28;20274;-88
2023/01/16 14:40:10;;;;;;;14.13;7.47;;;4.10;99.90;;;;;;5049054;28;20199;-88
2023/01/16 14:56:57;;;;;;;20.50;8.40;;;4.20;99.90;;;;;;5072393;28;20189;-90
2023/01/16 14:59:33;;;;;;;14.30;8.00;;;4.30;99.90;;;;;;5038511;28;20183;-90
2023/01/16 15:02:30;;;;;;;15.70;7.07;;;4.20;99.90;;;;;;5052112;28;20207;-88
2023/01/16 15:05:30;;;;;;;;;;;;;;;;;;;;;
2023/01/16 15:08:00;;;;;;;8.20;4.67;;;4.10;99.90;;;;;;5074801;28;20176;-89
2023/01/16 15:10:38;;;;;;;5.90;4.57;;;4.10;99.90;;;;;;5049181;28;20174;-88
2023/01/16 15:21:57;;;;;;;17.37;7.07;;;4.10;99.90;;;;;;5065264;28;20274;-90
2023/01/16 15:22:26;;;;;;;21.80;8.73;;;4.10;99.90;;;;;;5057919;28;20344;-88
2023/01/16 15:25:08;;;;;;;12.20;6.10;;;4.10;99.90;;;;;;5032665;28;20211;-88
2023/01/16 15:27:41;;;;;;;28.63;11.97;;;4.10;99.90;;;;;;5032926;28;20171;-89
2023/01/16 15:30:17;;;;;;;21.40;9.17;;;4.10;99.90;;;;;;5049307;28;20171;-89
2023/01/16 15:35:57;;;;;;;15.90;7.87;;;4.00;99.90;;;;;;5036443;28;20679;-88
2023/01/16 15:38:25;;;;;;;13.73;8.13;;;4.00;99.90;;;;;;5047978;28;20222;-89
2023/01/16 15:40:56;;;;;;;10.73;5.63;;;4.10;99.90;;;;;;5025275;28;20207;-88
2023/01/16 15:46:43;;;;;;;17.83;8.33;;;4.00;99.90;;;;;;5045260;28;20223;-89
2023/01/16 15:52:15;;;;;;;16.50;7.23;;;;;;;;;;5053805;28;20674;-88
2023/01/16 15:54:41;;;;;;;18.57;7.33;;;;;;;;;;5047624;28;20176;-90
2023/01/16 15:57:18;;;;;;;21.23;7.37;;;4.00;99.90;;;;;;5048157;28;20243;-90
2023/01/16 16:00:05;;;;;;;22.37;10.47;;;4.00;99.90;;;;;;5045068;28;20188;-90
2023/01/16 16:02:33;;;;;;;15.43;10.27;;;;;;;;;;5031521;28;20270;-89